createdAt,value
2024-04-18T17:42:26.270Z,8.4
2024-04-18T17:44:38.364Z,8.3
2024-04-18T17:46:45.724Z,8.3
2024-04-18T17:48:55.811Z,8.3
2024-04-18T17:51:07.385Z,8.4
2024-04-18T17:53:14.894Z,8.4
2024-04-18T17:55:29.804Z,8.4
2024-04-18T17:57:39.941Z,8.4
2024-04-18T17:59:50.746Z,8.4
2024-04-18T18:02:05.979Z,8.4
2024-04-18T18:04:17.096Z,8.5
2024-04-18T18:06:27.171Z,8.4
2024-04-18T18:08:34.618Z,8.4
2024-04-18T18:10:44.975Z,8.3
2024-04-18T18:12:57.637Z,8.3
2024-04-18T18:15:05.893Z,8.3
2024-04-18T18:17:15.853Z,8.3
2024-04-18T18:19:25.859Z,8.3
2024-04-18T18:21:35.783Z,8.3
2024-04-18T18:23:43.261Z,8.3
2024-04-18T18:25:53.058Z,8.3
2024-04-18T18:28:03.334Z,8.3
2024-04-18T18:30:14.357Z,8.3
2024-04-18T18:32:24.493Z,8.3
2024-04-18T18:34:36.412Z,8.3
2024-04-18T18:36:44.104Z,8.3
2024-04-18T18:38:54.044Z,8.4
2024-04-18T18:41:03.828Z,8.3
2024-04-18T18:43:16.412Z,8.3
2024-04-18T18:45:23.734Z,8.3
2024-04-18T18:47:33.635Z,8.3
2024-04-18T18:49:41.037Z,8.3
2024-04-18T18:51:53.791Z,8.3
2024-04-18T18:54:01.078Z,8.3
2024-04-18T18:56:11.047Z,8.3
2024-04-18T18:58:22.765Z,8.3
2024-04-18T19:00:32.849Z,8.3
2024-04-18T19:02:40.383Z,8.3
2024-04-18T19:04:50.755Z,8.3
2024-04-18T19:06:57.985Z,8.3
2024-04-18T19:09:10.117Z,8.3
2024-04-18T19:11:17.582Z,8.3
2024-04-18T19:13:30.479Z,8.3
2024-04-18T19:15:37.921Z,8.3
2024-04-18T19:17:49.340Z,8.3
2024-04-18T19:19:57.341Z,8.2
2024-04-18T19:22:07.778Z,8.2
2024-04-18T19:24:15.086Z,8.2
2024-04-18T19:26:26.422Z,8.2
2024-04-18T19:28:36.337Z,8.2
2024-04-18T19:30:46.715Z,8.2
2024-04-18T19:32:54.492Z,8.2
2024-04-18T19:35:05.047Z,8.1
2024-04-18T19:37:12.353Z,8
2024-04-18T19:39:24.902Z,8
2024-04-18T19:41:32.215Z,8
2024-04-18T19:43:44.714Z,8
2024-04-18T19:45:55.913Z,8
2024-04-18T19:48:06.308Z,8
2024-04-18T19:50:13.668Z,8
2024-04-18T19:52:23.617Z,7.9
2024-04-18T19:54:31.358Z,7.9
2024-04-18T19:56:41.399Z,7.9
2024-04-18T19:58:51.288Z,7.8
2024-04-18T20:01:04.044Z,7.8
2024-04-18T20:03:16.511Z,7.8
2024-04-18T20:05:26.394Z,7.8
2024-04-18T20:07:33.837Z,7.8
2024-04-18T20:09:43.888Z,7.8
2024-04-18T20:11:51.231Z,7.8
2024-04-18T20:14:03.803Z,7.8
2024-04-18T20:16:12.000Z,7.7
2024-04-18T20:18:22.011Z,7.6
2024-04-18T20:20:29.660Z,7.6
2024-04-18T20:22:39.691Z,7.6
2024-04-18T20:24:48.940Z,7.5
2024-04-18T20:26:59.620Z,7.5
2024-04-18T20:29:10.952Z,7.5
2024-04-18T20:31:20.889Z,7.5
2024-04-18T20:33:28.281Z,7.5
2024-04-18T20:35:38.408Z,7.5
2024-04-18T20:37:45.720Z,7.5
2024-04-18T20:39:59.442Z,7.5
2024-04-18T20:42:07.375Z,7.4
2024-04-18T20:44:20.078Z,7.4
2024-04-18T20:46:30.151Z,7.4
2024-04-18T20:48:40.192Z,7.3
2024-04-18T20:50:47.829Z,7.3
2024-04-18T20:52:57.872Z,7.3
2024-04-18T20:55:05.799Z,7.3
2024-04-18T20:57:16.443Z,7.3
2024-04-18T20:59:26.533Z,7.3
2024-04-18T21:01:36.445Z,7.2
2024-04-18T21:03:44.098Z,7.2
2024-04-18T21:05:54.035Z,7.2
2024-04-18T21:08:04.002Z,7.2
2024-04-18T21:10:14.345Z,7.2
2024-04-18T21:12:22.300Z,7.1
2024-04-18T21:14:34.904Z,7.2
2024-04-18T21:16:42.328Z,7.1
2024-04-18T21:18:52.372Z,7.2
2024-04-18T21:20:59.958Z,7.1
2024-04-18T21:23:09.995Z,7.1
2024-04-18T21:25:18.046Z,7.2
2024-04-18T21:27:36.928Z,7.2
2024-04-18T21:29:46.979Z,7.2
2024-04-18T21:32:04.049Z,7.1
2024-04-18T21:34:13.805Z,7.2
2024-04-18T21:36:23.832Z,7.1
2024-04-18T21:38:36.550Z,7.1
2024-04-18T21:40:51.685Z,7.1
2024-04-18T21:43:03.959Z,7
2024-04-18T21:45:16.998Z,7
2024-04-18T21:47:24.408Z,7
2024-04-18T21:49:34.348Z,7
2024-04-18T21:51:41.868Z,7
2024-04-18T21:53:52.212Z,7
2024-04-18T21:55:59.905Z,6.9
2024-04-18T21:58:09.797Z,6.9
2024-04-18T22:00:19.795Z,6.9
2024-04-18T22:02:29.766Z,6.9
2024-04-18T22:04:37.164Z,6.9
2024-04-18T22:06:48.263Z,6.9
2024-04-18T22:09:02.607Z,6.9
2024-04-18T22:11:12.716Z,6.9
2024-04-18T22:13:20.221Z,6.9
2024-04-18T22:15:35.573Z,6.8
2024-04-18T22:17:43.007Z,6.8
2024-04-18T22:19:53.289Z,6.9
2024-04-18T22:22:01.245Z,6.8
2024-04-18T22:24:15.241Z,6.8
2024-04-18T22:26:22.532Z,6.8
2024-04-18T22:28:55.729Z,6.8
2024-04-18T22:31:01.838Z,6.8
2024-04-18T22:33:11.859Z,6.8
2024-04-18T22:35:19.618Z,6.8
2024-04-18T22:37:38.579Z,6.8
2024-04-18T22:39:57.382Z,6.8
2024-04-18T22:42:07.942Z,6.8
2024-04-18T22:44:15.512Z,6.9
2024-04-18T22:46:28.487Z,6.9
2024-04-18T22:48:35.984Z,6.9
2024-04-18T22:50:48.577Z,7
2024-04-18T22:52:56.276Z,6.9
2024-04-18T22:55:06.253Z,7
2024-04-18T22:57:14.033Z,7
2024-04-18T22:59:24.659Z,7
2024-04-18T23:01:37.010Z,6.9
2024-04-18T23:03:47.522Z,6.9
2024-04-18T23:05:55.026Z,6.9
2024-04-18T23:08:05.228Z,7
2024-04-18T23:10:13.301Z,7
2024-04-18T23:12:23.291Z,7
2024-04-18T23:14:30.784Z,7
2024-04-18T23:16:43.354Z,7
2024-04-18T23:18:50.673Z,7.1
2024-04-18T23:21:00.943Z,7.1
2024-04-18T23:23:08.926Z,7
2024-04-18T23:25:19.150Z,7.1
2024-04-18T23:27:26.527Z,7
2024-04-18T23:29:36.609Z,7
2024-04-18T23:31:46.580Z,7
2024-04-18T23:33:56.509Z,7
2024-04-18T23:36:04.123Z,7
2024-04-18T23:38:14.831Z,6.9
2024-04-18T23:40:22.084Z,6.9
2024-04-18T23:42:31.986Z,6.9
2024-04-18T23:44:39.299Z,6.9
2024-04-18T23:46:51.774Z,6.9
2024-04-18T23:48:59.115Z,6.9
2024-04-18T23:51:09.181Z,6.9
2024-04-18T23:53:16.518Z,6.9
2024-04-18T23:55:26.471Z,6.9
2024-04-18T23:57:33.799Z,6.9
2024-04-18T23:59:43.707Z,6.9
